Time;durP1;ratioP1;P1;durP2;ratioP2;P2;SDS_P1;SDS_P2;PMS_P1;PMS_P2;Temp;Humidity;BMP_temperature;BMP_pressure;BME280_temperature;BME280_humidity;BME280_pressure;Samples;Min_cycle;Max_cycle;Signal;HPM_P1;HPM_P2
2020/12/21 00:00:23;;;;;;;;;;;;;;;2.84;76.78;102087.83;1666819;86;20139;-50
2020/12/21 00:02:50;;;;;;;;;;;;;;;2.86;76.91;102091.68;1666503;86;20261;-50
2020/12/21 00:05:18;;;;;;;;;;;;;;;2.86;76.96;102089.97;1666602;86;20677;-50
2020/12/21 00:07:45;;;;;;;;;;;;;;;2.89;76.96;102089.09;1667188;86;20158;-50
2020/12/21 00:10:13;;;;;;;;;;;;;;;2.89;76.98;102086.52;1666491;86;20183;-49
2020/12/21 00:12:43;;;;;;;;;;;;;;;2.90;76.96;102088.23;1665922;86;20464;-50
2020/12/21 00:15:10;;;;;;;;;;;;;;;2.89;76.92;102082.66;1666499;86;20171;-50
2020/12/21 00:17:37;;;;;;;;;;;;;;;2.88;77.00;102084.81;1666379;86;20187;-50
2020/12/21 00:20:04;;;;;;;;;;;;;;;2.86;76.98;102086.53;1666601;86;20234;-50
2020/12/21 00:22:32;;;;;;;;;;;;;;;2.85;77.04;102084.82;1666803;86;20155;-50
2020/12/21 00:24:59;;;;;;;;;;;;;;;2.81;77.04;102081.83;1666948;86;20178;-50
2020/12/21 00:27:26;;;;;;;;;;;;;;;2.79;77.06;102077.13;1667046;85;20234;-50
2020/12/21 00:29:53;;;;;;;;;;;;;;;2.78;77.07;102075.41;1666801;86;20462;-50
2020/12/21 00:32:20;;;;;;;;;;;;;;;2.79;77.18;102083.12;1667110;85;20425;-50
2020/12/21 00:34:48;;;;;;;;;;;;;;;2.81;77.26;102081.83;1666581;86;20290;-50
2020/12/21 00:37:15;;;;;;;;;;;;;;;2.81;77.32;102085.27;1667034;86;20294;-50
2020/12/21 00:39:42;;;;;;;;;;;;;;;2.85;77.29;102087.39;1666492;86;20132;-50
2020/12/21 00:42:09;;;;;;;;;;;;;;;2.85;77.37;102086.11;1667005;86;20186;-50
2020/12/21 00:44:36;;;;;;;;;;;;;;;2.85;77.29;102077.09;1666347;86;20159;-50
2020/12/21 00:47:04;;;;;;;;;;;;;;;2.83;77.23;102078.82;1666456;86;20155;-52
2020/12/21 00:49:32;;;;;;;;;;;;;;;2.80;77.23;102080.98;1666865;86;20143;-49
2020/12/21 00:52:01;;;;;;;;;;;;;;;2.80;77.30;102084.84;1666417;86;20178;-50
2020/12/21 00:54:28;;;;;;;;;;;;;;;2.78;77.31;102087.00;1666981;86;20243;-50
2020/12/21 00:56:56;;;;;;;;;;;;;;;2.76;77.25;102086.14;1666158;86;20162;-50
2020/12/21 00:59:24;;;;;;;;;;;;;;;2.74;77.27;102086.59;1665827;86;20163;-50
2020/12/21 01:01:51;;;;;;;;;;;;;;;2.75;77.28;102087.01;1665871;86;20375;-50
2020/12/21 01:04:18;;;;;;;;;;;;;;;2.76;77.33;102093.88;1665248;86;20159;-50
2020/12/21 01:06:45;;;;;;;;;;;;;;;2.76;77.34;102090.87;1665251;86;20373;-50
2020/12/21 01:09:13;;;;;;;;;;;;;;;2.78;77.38;102084.42;1615574;86;20182;-50
2020/12/21 01:11:40;;;;;;;;;;;;;;;2.80;77.32;102084.84;1665140;86;20158;-49
2020/12/21 01:14:07;;;;;;;;;;;;;;;2.80;77.24;102094.28;1665179;86;20155;-50
2020/12/21 01:16:34;;;;;;;;;;;;;;;2.78;77.13;102083.99;1665387;86;20170;-49
2020/12/21 01:19:01;;;;;;;;;;;;;;;2.77;77.08;102087.86;1665509;86;20194;-50
2020/12/21 01:21:31;;;;;;;;;;;;;;;2.75;77.07;102085.29;1665431;86;20278;-49
2020/12/21 01:23:59;;;;;;;;;;;;;;;2.74;77.05;102089.16;1664383;85;20127;-49
2020/12/21 01:26:26;;;;;;;;;;;;;;;2.71;77.05;102084.88;1658230;86;20155;-49
2020/12/21 01:28:54;;;;;;;;;;;;;;;2.71;77.09;102091.75;1658229;86;20539;-50
2020/12/21 01:31:22;;;;;;;;;;;;;;;2.70;77.03;102087.46;1658171;86;20674;-50
2020/12/21 01:33:50;;;;;;;;;;;;;;;2.70;77.11;102089.60;1658067;86;20159;-50
2020/12/21 01:36:20;;;;;;;;;;;;;;;2.71;77.08;102093.89;1657961;86;20139;-50
2020/12/21 01:38:48;;;;;;;;;;;;;;;2.73;77.07;102088.30;1658021;86;20465;-49
2020/12/21 01:41:15;;;;;;;;;;;;;;;2.76;77.04;102088.72;1658080;86;20184;-50
2020/12/21 01:43:43;;;;;;;;;;;;;;;2.77;77.03;102084.00;1657995;86;20453;-50
2020/12/21 01:46:13;;;;;;;;;;;;;;;2.77;76.97;102082.71;1658072;86;20184;-50
2020/12/21 01:48:43;;;;;;;;;;;;;;;2.77;76.87;102084.00;1658038;86;20205;-50
2020/12/21 01:51:24;;;;;;;;;;;;;;;2.76;76.87;102083.14;1658089;86;20220;-50
2020/12/21 01:53:51;;;;;;;;;;;;;;;2.75;76.81;102080.58;1658117;86;20372;-49
2020/12/21 01:56:19;;;;;;;;;;;;;;;2.71;76.75;102081.02;1658089;86;20163;-50
2020/12/21 01:58:47;;;;;;;;;;;;;;;2.70;76.82;102084.88;1657999;86;20139;-50
2020/12/21 02:01:15;;;;;;;;;;;;;;;2.68;76.75;102074.59;1657914;86;20203;-50
2020/12/21 02:03:42;;;;;;;;;;;;;;;2.70;76.74;102079.73;1657891;86;20183;-50
2020/12/21 02:06:10;;;;;;;;;;;;;;;2.69;76.78;102078.88;1658091;86;20123;-50
2020/12/21 02:08:37;;;;;;;;;;;;;;;2.71;76.77;102073.72;1657911;86;20446;-50
2020/12/21 02:11:04;;;;;;;;;;;;;;;2.73;76.75;102075.86;1658027;86;20174;-50
2020/12/21 02:13:32;;;;;;;;;;;;;;;2.74;76.68;102073.71;1658194;86;20255;-50
2020/12/21 02:16:00;;;;;;;;;;;;;;;2.73;76.68;102074.58;1658408;86;20175;-50
2020/12/21 02:18:28;;;;;;;;;;;;;;;2.72;76.73;102072.86;1658445;86;20139;-49
2020/12/21 02:20:55;;;;;;;;;;;;;;;2.73;76.68;102082.30;1658259;86;20171;-50
2020/12/21 02:23:22;;;;;;;;;;;;;;;2.70;76.71;102081.02;1658309;86;20460;-50
2020/12/21 02:25:49;;;;;;;;;;;;;;;2.69;76.67;102075.45;1663623;85;20162;-50
2020/12/21 02:28:16;;;;;;;;;;;;;;;2.67;76.74;102079.75;1665260;86;20147;-50
2020/12/21 02:30:44;;;;;;;;;;;;;;;2.68;76.87;102084.03;1665149;86;20155;-50
2020/12/21 02:33:12;;;;;;;;;;;;;;;2.68;76.86;102078.88;1665167;86;20191;-50
2020/12/21 02:35:39;;;;;;;;;;;;;;;2.70;76.95;102083.59;1665175;86;20186;-50
2020/12/21 02:38:07;;;;;;;;;;;;;;;2.72;76.94;102078.02;1665213;86;20151;-50
2020/12/21 02:40:38;;;;;;;;;;;;;;;2.74;76.94;102084.01;1665213;86;20229;-50
2020/12/21 02:43:07;;;;;;;;;;;;;;;2.74;76.94;102082.30;1679091;85;20275;-50
2020/12/21 02:45:34;;;;;;;;;;;;;;;2.76;76.97;102088.72;1652008;87;20141;-50
2020/12/21 02:48:01;;;;;;;;;;;;;;;2.76;76.96;102087.00;1679697;85;20250;-50
2020/12/21 02:50:30;;;;;;;;;;;;;;;2.75;76.92;102089.16;1651010;87;20435;-50
2020/12/21 02:52:57;;;;;;;;;;;;;;;2.75;76.99;102088.30;1652255;87;20188;-50
2020/12/21 02:55:24;;;;;;;;;;;;;;;2.73;77.02;102088.30;1679813;85;20159;-50
2020/12/21 02:57:51;;;;;;;;;;;;;;;2.73;76.98;102087.45;1650816;87;20773;-49
2020/12/21 03:00:18;;;;;;;;;;;;;;;2.72;76.96;102088.31;1682375;85;20345;-50
2020/12/21 03:02:46;;;;;;;;;;;;;;;2.72;77.02;102086.59;1651893;87;20280;-50
2020/12/21 03:05:13;;;;;;;;;;;;;;;2.73;77.06;102075.86;1667644;86;20573;-50
2020/12/21 03:07:40;;;;;;;;;;;;;;;2.74;77.03;102084.01;1667858;86;20249;-50
2020/12/21 03:10:08;;;;;;;;;;;;;;;2.76;77.08;102083.58;1667766;85;20242;-50
2020/12/21 03:12:35;;;;;;;;;;;;;;;2.78;77.06;102084.42;1667856;86;20175;-50
2020/12/21 03:15:02;;;;;;;;;;;;;;;2.78;77.11;102081.42;1668028;86;20162;-49
2020/12/21 03:17:30;;;;;;;;;;;;;;;2.79;77.07;102083.12;1668135;85;20261;-50
2020/12/21 03:19:57;;;;;;;;;;;;;;;2.80;77.07;102083.98;1667943;86;20166;-50
2020/12/21 03:22:24;;;;;;;;;;;;;;;2.79;77.06;102083.56;1668058;86;20174;-50
2020/12/21 03:24:51;;;;;;;;;;;;;;;2.78;77.13;102087.00;1664659;86;20246;-50
2020/12/21 03:27:19;;;;;;;;;;;;;;;2.77;77.08;102094.30;1655156;87;20175;-50
2020/12/21 03:29:46;;;;;;;;;;;;;;;2.73;77.14;102093.45;1655067;87;20179;-50
2020/12/21 03:32:13;;;;;;;;;;;;;;;2.72;77.19;102095.60;1655070;87;20196;-50
2020/12/21 03:34:42;;;;;;;;;;;;;;;2.73;77.19;102096.45;1655101;87;20269;-50
2020/12/21 03:37:09;;;;;;;;;;;;;;;2.76;77.31;102097.73;1655132;86;20179;-50
2020/12/21 03:39:36;;;;;;;;;;;;;;;2.77;77.34;102102.88;1655085;87;20191;-50
2020/12/21 03:42:05;;;;;;;;;;;;;;;2.78;77.34;102097.30;1655157;86;20175;-50
2020/12/21 03:44:32;;;;;;;;;;;;;;;2.79;77.36;102101.58;1655293;86;20175;-50
2020/12/21 03:46:59;;;;;;;;;;;;;;;2.80;77.31;102100.72;1655387;87;20148;-50
2020/12/21 03:49:26;;;;;;;;;;;;;;;2.80;77.36;102102.01;1655304;87;20287;-49
2020/12/21 03:51:54;;;;;;;;;;;;;;;2.80;77.35;102098.15;1655273;86;20460;-50
2020/12/21 03:54:22;;;;;;;;;;;;;;;2.79;77.35;102097.72;1655168;87;20373;-49
2020/12/21 03:56:49;;;;;;;;;;;;;;;2.77;77.37;102096.88;1655103;86;20361;-50
2020/12/21 03:59:16;;;;;;;;;;;;;;;2.76;77.39;102101.59;1656216;87;20364;-50
2020/12/21 04:01:44;;;;;;;;;;;;;;;2.75;77.39;102095.59;1656952;87;20204;-50
2020/12/21 04:04:11;;;;;;;;;;;;;;;2.77;77.45;102093.01;1655605;87;20124;-49
2020/12/21 04:06:39;;;;;;;;;;;;;;;2.78;77.50;102085.71;1657041;87;20177;-50
2020/12/21 04:09:06;;;;;;;;;;;;;;;2.81;77.51;102090.84;1656388;87;20168;-49
2020/12/21 04:11:35;;;;;;;;;;;;;;;2.83;77.48;102087.84;1656856;87;20171;-50
2020/12/21 04:14:02;;;;;;;;;;;;;;;2.84;77.42;102089.55;1656565;86;20389;-50
2020/12/21 04:16:29;;;;;;;;;;;;;;;2.86;77.40;102091.68;1656805;87;20175;-50
2020/12/21 04:18:56;;;;;;;;;;;;;;;2.84;77.27;102086.97;1656870;87;20178;-50
2020/12/21 04:21:24;;;;;;;;;;;;;;;2.82;77.34;102084.41;1655942;87;20443;-50
2020/12/21 04:23:51;;;;;;;;;;;;;;;2.81;77.32;102085.70;1655250;87;20464;-50
2020/12/21 04:26:18;;;;;;;;;;;;;;;2.80;77.25;102087.41;1655091;86;20663;-50
2020/12/21 04:28:46;;;;;;;;;;;;;;;2.79;77.18;102094.72;1655061;87;20400;-50
2020/12/21 04:31:13;;;;;;;;;;;;;;;2.77;77.18;102091.72;1655215;86;20504;-50
2020/12/21 04:33:41;;;;;;;;;;;;;;;2.76;77.11;102093.88;1655291;87;20159;-50
2020/12/21 04:36:11;;;;;;;;;;;;;;;2.78;77.08;102090.86;1655175;86;20140;-50
2020/12/21 04:38:42;;;;;;;;;;;;;;;2.78;77.08;102089.14;1655100;87;20156;-50
2020/12/21 04:41:09;;;;;;;;;;;;;;;2.80;77.08;102090.42;1655168;86;20183;-50
2020/12/21 04:43:37;;;;;;;;;;;;;;;2.80;76.95;102094.28;1655188;86;20136;-49
2020/12/21 04:46:07;;;;;;;;;;;;;;;2.82;76.92;102096.42;1655338;87;20140;-50
2020/12/21 04:48:39;;;;;;;;;;;;;;;2.82;76.86;102102.86;1655356;86;20124;-50
2020/12/21 04:51:07;;;;;;;;;;;;;;;2.82;76.79;102110.59;1655306;87;20143;-49
2020/12/21 04:53:39;;;;;;;;;;;;;;;2.81;76.65;102117.88;1655376;87;20135;-50
2020/12/21 04:56:07;;;;;;;;;;;;;;;2.81;76.64;102107.58;1633347;87;20155;-49
2020/12/21 04:58:34;;;;;;;;;;;;;;;2.78;76.53;102104.59;1655329;87;20287;-50
2020/12/21 05:01:02;;;;;;;;;;;;;;;2.77;76.47;102105.88;1655379;87;20171;-49
2020/12/21 05:03:29;;;;;;;;;;;;;;;2.76;76.38;102102.88;1655483;86;20197;-50
2020/12/21 05:06:00;;;;;;;;;;;;;;;2.77;76.37;102103.31;1655496;87;20269;-49
2020/12/21 05:08:29;;;;;;;;;;;;;;;2.77;76.33;102110.60;1655167;87;20128;-50
2020/12/21 05:11:00;;;;;;;;;;;;;;;2.79;76.31;102108.02;1655495;87;20265;-50
2020/12/21 05:13:29;;;;;;;;;;;;;;;2.81;76.22;102105.01;1655991;86;20144;-50
2020/12/21 05:15:57;;;;;;;;;;;;;;;2.83;76.06;102102.00;1655446;87;20440;-49
2020/12/21 05:18:28;;;;;;;;;;;;;;;2.82;75.92;102099.00;1655366;87;20372;-50
2020/12/21 05:20:56;;;;;;;;;;;;;;;2.84;75.74;102111.00;1655422;86;20683;-49
2020/12/21 05:23:24;;;;;;;;;;;;;;;2.83;75.55;102108.44;1655228;87;20199;-50
2020/12/21 05:25:58;;;;;;;;;;;;;;;2.81;75.41;102114.02;1655185;86;20151;-50
2020/12/21 05:28:32;;;;;;;;;;;;;;;2.80;75.35;102123.47;1655298;87;20159;-50
2020/12/21 05:31:05;;;;;;;;;;;;;;;2.79;75.27;102138.92;1655309;87;20159;-50
2020/12/21 05:33:32;;;;;;;;;;;;;;;2.76;75.08;102118.33;1655280;86;20159;-49
2020/12/21 05:36:08;;;;;;;;;;;;;;;2.77;75.06;102131.63;1655460;87;20389;-49
2020/12/21 05:38:35;;;;;;;;;;;;;;;2.78;75.12;102134.63;1655279;87;20123;-50
2020/12/21 05:41:18;;;;;;;;;;;;;;;2.78;75.03;102142.36;1655324;87;20277;-50
2020/12/21 05:43:49;;;;;;;;;;;;;;;2.79;74.92;102138.48;1655083;87;20435;-50
2020/12/21 05:46:19;;;;;;;;;;;;;;;2.80;74.72;102138.91;1655202;87;20317;-49
2020/12/21 05:48:48;;;;;;;;;;;;;;;2.81;74.61;102134.63;1655034;86;20436;-49
2020/12/21 05:51:30;;;;;;;;;;;;;;;2.80;74.50;102146.64;1655171;87;20159;-49
2020/12/21 05:53:58;;;;;;;;;;;;;;;2.79;74.43;102143.64;1655240;87;20171;-49
2020/12/21 05:56:28;;;;;;;;;;;;;;;2.79;74.50;102154.37;1655321;87;20347;-49
2020/12/21 05:58:55;;;;;;;;;;;;;;;2.77;74.39;102148.37;1655409;87;20167;-49
2020/12/21 06:01:24;;;;;;;;;;;;;;;2.75;74.30;102157.81;1655251;87;20191;-49
2020/12/21 06:03:52;;;;;;;;;;;;;;;2.74;74.22;102152.23;1655156;87;20184;-49
2020/12/21 06:06:25;;;;;;;;;;;;;;;2.74;74.11;102156.10;1655281;87;20388;-49
2020/12/21 06:08:55;;;;;;;;;;;;;;;2.75;73.93;102153.95;1655298;87;20159;-49
2020/12/21 06:11:25;;;;;;;;;;;;;;;2.75;73.80;102152.66;1655173;86;20188;-49
2020/12/21 06:13:57;;;;;;;;;;;;;;;2.77;73.57;102159.95;1655341;86;20635;-49
2020/12/21 06:16:25;;;;;;;;;;;;;;;2.78;73.38;102160.38;1655402;86;20469;-49
2020/12/21 06:19:11;;;;;;;;;;;;;;;2.78;73.29;102162.95;1655184;87;20419;-49
2020/12/21 06:21:44;;;;;;;;;;;;;;;2.77;73.09;102164.67;1655076;86;20274;-49
2020/12/21 06:24:23;;;;;;;;;;;;;;;2.75;72.70;102162.53;1654644;87;20155;-49
2020/12/21 06:26:51;;;;;;;;;;;;;;;2.73;72.39;102165.97;1662427;85;20490;-49
2020/12/21 06:29:20;;;;;;;;;;;;;;;2.70;72.07;102170.70;1667877;86;20416;-49
2020/12/21 06:31:49;;;;;;;;;;;;;;;2.69;71.87;102170.70;1667758;85;20257;-49
2020/12/21 06:34:18;;;;;;;;;;;;;;;2.66;71.64;102174.57;1667825;86;20155;-49
2020/12/21 06:36:46;;;;;;;;;;;;;;;2.64;71.43;102176.72;1667690;86;20442;-49
2020/12/21 06:39:23;;;;;;;;;;;;;;;2.62;71.33;102174.58;1667876;86;20280;-49
2020/12/21 06:42:10;;;;;;;;;;;;;;;2.61;71.16;102181.88;1666047;86;20514;-49
2020/12/21 06:44:39;;;;;;;;;;;;;;;2.58;70.84;102176.77;1667757;86;20167;-49
2020/12/21 06:47:06;;;;;;;;;;;;;;;2.58;70.62;102182.34;1667669;86;20261;-49
2020/12/21 06:49:34;;;;;;;;;;;;;;;2.56;70.36;102182.34;1667918;86;20198;-49
2020/12/21 06:52:01;;;;;;;;;;;;;;;2.56;70.14;102183.63;1667934;86;20182;-49
2020/12/21 06:54:29;;;;;;;;;;;;;;;2.55;69.98;102179.34;1667958;85;20261;-49
2020/12/21 06:56:57;;;;;;;;;;;;;;;2.54;69.74;102185.78;1668103;86;20167;-49
2020/12/21 06:59:24;;;;;;;;;;;;;;;2.54;69.50;102179.34;1668095;86;20174;-49
2020/12/21 07:01:53;;;;;;;;;;;;;;;2.53;69.39;102184.92;1668003;86;20138;-49
2020/12/21 07:04:21;;;;;;;;;;;;;;;2.52;69.21;102181.06;1667849;86;20467;-49
2020/12/21 07:06:48;;;;;;;;;;;;;;;2.50;68.99;102174.64;1667846;85;20261;-49
2020/12/21 07:09:18;;;;;;;;;;;;;;;2.50;68.86;102178.50;1667731;86;20403;-49
2020/12/21 07:11:45;;;;;;;;;;;;;;;2.50;68.67;102173.34;1666031;86;20183;-49
2020/12/21 07:14:13;;;;;;;;;;;;;;;2.48;68.61;102176.36;1641037;86;20155;-49
2020/12/21 07:16:42;;;;;;;;;;;;;;;2.48;68.48;102180.22;1667831;86;20178;-49
2020/12/21 07:19:10;;;;;;;;;;;;;;;2.48;68.42;102184.50;1667855;86;20139;-49
2020/12/21 07:21:39;;;;;;;;;;;;;;;2.48;68.36;102181.94;1667730;86;20143;-49
2020/12/21 07:24:09;;;;;;;;;;;;;;;2.46;68.29;102179.36;1667824;86;20459;-49
2020/12/21 07:26:39;;;;;;;;;;;;;;;2.47;68.25;102180.22;1661885;85;20172;-49
2020/12/21 07:29:06;;;;;;;;;;;;;;;2.47;68.18;102173.36;1654988;87;20266;-49
2020/12/21 07:31:33;;;;;;;;;;;;;;;2.48;68.11;102168.63;1654966;86;20119;-64
2020/12/21 07:34:00;;;;;;;;;;;;;;;2.48;67.82;102172.50;1702886;84;20177;-64
2020/12/21 07:36:30;;;;;;;;;;;;;;;2.39;67.05;102169.94;1688837;85;20186;-64
2020/12/21 07:39:10;;;;;;;;;;;;;;;2.12;66.61;102172.53;1690950;85;20175;-64
2020/12/21 07:41:41;;;;;;;;;;;;;;;1.76;66.84;102172.94;1690822;85;20270;-63
2020/12/21 07:44:15;;;;;;;;;;;;;;;1.51;67.43;102175.06;1666214;85;20126;-63
2020/12/21 07:46:53;;;;;;;;;;;;;;;1.33;67.77;102170.73;1669426;85;20186;-63
2020/12/21 07:49:20;;;;;;;;;;;;;;;1.15;68.03;102166.81;1690275;85;20335;-63
2020/12/21 07:51:48;;;;;;;;;;;;;;;1.02;68.27;102171.05;1690627;84;20217;-62
2020/12/21 07:54:15;;;;;;;;;;;;;;;0.89;68.37;102169.27;1690728;85;20186;-62
2020/12/21 07:56:43;;;;;;;;;;;;;;;0.83;68.52;102178.27;1690899;85;20217;-62
2020/12/21 07:59:16;;;;;;;;;;;;;;;0.75;68.31;102173.52;1690707;85;20175;-63
2020/12/21 08:01:44;;;;;;;;;;;;;;;0.70;68.55;102170.06;1690889;85;20519;-63
2020/12/21 08:04:19;;;;;;;;;;;;;;;0.67;68.74;102171.33;1663323;85;20163;-63
2020/12/21 08:06:46;;;;;;;;;;;;;;;0.65;68.72;102171.32;1663089;86;20187;-63
2020/12/21 08:09:13;;;;;;;;;;;;;;;0.58;68.82;102166.58;1678668;85;20555;-64
2020/12/21 08:11:40;;;;;;;;;;;;;;;0.53;68.77;102170.82;1687237;85;20158;-64
2020/12/21 08:14:10;;;;;;;;;;;;;;;0.50;68.84;102172.08;1689365;84;20119;-62
2020/12/21 08:16:38;;;;;;;;;;;;;;;0.47;68.92;102164.80;1677872;85;20290;-63
2020/12/21 08:19:10;;;;;;;;;;;;;;;0.47;69.32;102170.78;1677569;85;20126;-59
2020/12/21 08:21:36;;;;;;;;;;;;;;;0.47;69.44;102170.78;1689354;85;20419;-61
2020/12/21 08:24:05;;;;;;;;;;;;;;;0.47;69.40;102174.62;1682210;85;20443;-61
2020/12/21 08:26:37;;;;;;;;;;;;;;;0.46;69.46;102174.19;1676374;85;20198;-62
2020/12/21 08:29:06;;;;;;;;;;;;;;;0.46;69.36;102171.63;1666455;85;20456;-64
2020/12/21 08:31:42;;;;;;;;;;;;;;;0.45;69.39;102169.91;1685953;84;20238;-61
2020/12/21 08:34:09;;;;;;;;;;;;;;;0.42;69.36;102175.02;1676754;83;20198;-62
2020/12/21 08:36:38;;;;;;;;;;;;;;;0.42;69.36;102171.17;1689442;85;20186;-61
2020/12/21 08:39:12;;;;;;;;;;;;;;;0.43;69.52;102170.33;1689640;85;20188;-61
2020/12/21 08:41:48;;;;;;;;;;;;;;;0.44;69.74;102173.33;1697645;84;20193;-63
2020/12/21 08:44:28;;;;;;;;;;;;;;;0.43;69.78;102175.45;1647248;85;20435;-61
2020/12/21 08:46:57;;;;;;;;;;;;;;;0.42;69.82;102171.59;1689707;85;20431;-62
2020/12/21 08:49:25;;;;;;;;;;;;;;;0.37;69.89;102170.28;1693420;84;20257;-62
2020/12/21 08:51:53;;;;;;;;;;;;;;;0.34;69.81;102176.67;1669743;84;20713;-62
2020/12/21 08:54:20;;;;;;;;;;;;;;;0.29;69.92;102176.64;1646201;84;20189;-61
2020/12/21 08:56:57;;;;;;;;;;;;;;;0.26;69.96;102169.34;1678123;84;20135;-60
2020/12/21 08:59:19;;;;;;;;;;;;;;;0.28;70.05;102171.50;1678760;84;20166;-58
2020/12/21 09:01:47;;;;;;;;;;;;;;;0.26;70.08;102170.63;1677213;84;20381;-59
2020/12/21 09:04:14;;;;;;;;;;;;;;;0.22;70.24;102161.20;1667786;86;20173;-62
2020/12/21 09:06:42;;;;;;;;;;;;;;;0.18;70.30;102156.89;1687540;84;20392;-64
2020/12/21 09:09:10;;;;;;;;;;;;;;;0.16;70.45;102158.59;1675624;84;20170;-62
2020/12/21 09:11:38;;;;;;;;;;;;;;;0.14;70.33;102156.02;1677180;84;20178;-68
2020/12/21 09:14:05;;;;;;;;;;;;;;;0.11;70.17;102148.72;1668601;84;20301;-61
2020/12/21 09:16:32;;;;;;;;;;;;;;;0.06;70.01;102160.65;1691013;84;20137;-63
2020/12/21 09:19:00;;;;;;;;;;;;;;;0.04;70.21;102159.77;1691884;84;20220;-62
2020/12/21 09:21:28;;;;;;;;;;;;;;;-0.02;70.02;102156.34;1674495;85;20157;-62
2020/12/21 09:23:56;;;;;;;;;;;;;;;-0.07;70.04;102157.16;1679056;85;20158;-63
2020/12/21 09:26:24;;;;;;;;;;;;;;;-0.11;69.87;102160.11;1701327;83;20473;-64
2020/12/21 09:28:51;;;;;;;;;;;;;;;-0.14;70.00;102156.67;1705953;83;20239;-63
2020/12/21 09:31:20;;;;;;;;;;;;;;;-0.16;70.09;102150.25;1672096;85;20178;-63
2020/12/21 09:33:49;;;;;;;;;;;;;;;-0.15;70.08;102156.23;1695872;84;20264;-65
2020/12/21 09:36:18;;;;;;;;;;;;;;;-0.15;69.92;102155.81;1699021;84;20288;-63
2020/12/21 09:38:46;;;;;;;;;;;;;;;-0.20;69.71;102151.06;1678266;84;20178;-63
2020/12/21 09:41:18;;;;;;;;;;;;;;;-0.27;69.79;102149.29;1691044;84;20387;-64
2020/12/21 09:43:49;;;;;;;;;;;;;;;-0.31;69.99;102159.08;1711040;83;20176;-63
2020/12/21 09:46:23;;;;;;;;;;;;;;;-0.34;70.33;102161.19;1691720;83;20176;-60
2020/12/21 09:48:51;;;;;;;;;;;;;;;-0.31;70.50;102154.38;1686674;84;20374;-59
2020/12/21 09:51:18;;;;;;;;;;;;;;;-0.36;70.48;102162.02;1676945;84;20548;-62
2020/12/21 09:53:46;;;;;;;;;;;;;;;-0.44;70.57;102146.57;1686423;84;20312;-62
2020/12/21 09:56:14;;;;;;;;;;;;;;;-0.51;70.84;102156.73;1695550;84;20154;-63
2020/12/21 09:58:44;;;;;;;;;;;;;;;-0.56;71.00;102151.56;1693759;84;20285;-60
2020/12/21 10:01:13;;;;;;;;;;;;;;;-0.57;71.04;102156.67;1695253;84;20229;-71
2020/12/21 10:03:43;;;;;;;;;;;;;;;-0.59;71.01;102158.36;1684919;84;20870;-61
2020/12/21 10:06:11;;;;;;;;;;;;;;;-0.61;71.08;102149.80;1683161;84;20178;-62
2020/12/21 10:08:40;;;;;;;;;;;;;;;-0.61;70.99;102156.20;1683039;84;20420;-60
2020/12/21 10:11:07;;;;;;;;;;;;;;;-0.62;70.87;102152.78;1682874;84;20250;-61
2020/12/21 10:13:35;;;;;;;;;;;;;;;-0.64;70.87;102154.47;1693706;84;20261;-62
2020/12/21 10:16:03;;;;;;;;;;;;;;;-0.69;70.73;102144.18;1683140;84;20190;-60
2020/12/21 10:18:30;;;;;;;;;;;;;;;-0.76;70.50;102146.66;1670981;86;20430;-66
2020/12/21 10:20:57;;;;;;;;;;;;;;;-0.83;70.50;102153.83;1687409;84;20178;-63
2020/12/21 10:23:25;;;;;;;;;;;;;;;-0.89;70.55;102149.53;1676667;84;20939;-67
2020/12/21 10:25:52;;;;;;;;;;;;;;;-0.92;70.52;102153.34;1679780;84;20198;-65
2020/12/21 10:28:20;;;;;;;;;;;;;;;-0.94;70.79;102147.34;1691308;84;20395;-64
2020/12/21 10:30:47;;;;;;;;;;;;;;;-0.94;70.60;102147.76;1665957;84;20253;-61
2020/12/21 10:33:16;;;;;;;;;;;;;;;-0.94;70.40;102152.45;1673245;84;20182;-62
2020/12/21 10:35:43;;;;;;;;;;;;;;;-0.98;70.24;102146.86;1666431;86;20191;-61
2020/12/21 10:38:11;;;;;;;;;;;;;;;-0.99;70.06;102152.82;1672207;84;20758;-64
2020/12/21 10:40:39;;;;;;;;;;;;;;;-0.98;70.07;102147.28;1683452;84;20200;-63
2020/12/21 10:43:06;;;;;;;;;;;;;;;-0.97;69.85;102156.68;1694958;84;20441;-64
2020/12/21 10:45:33;;;;;;;;;;;;;;;-0.96;69.64;102150.72;1671744;86;20190;-62
2020/12/21 10:48:01;;;;;;;;;;;;;;;-1.01;69.20;102154.08;1680946;84;20126;-64
2020/12/21 10:50:28;;;;;;;;;;;;;;;-1.07;69.20;102157.84;1689402;84;20297;-62
2020/12/21 10:52:55;;;;;;;;;;;;;;;-1.06;69.19;102157.00;1672628;84;20958;-61
2020/12/21 10:55:23;;;;;;;;;;;;;;;-1.02;69.13;102147.66;1671617;85;20367;-63
2020/12/21 10:57:50;;;;;;;;;;;;;;;-0.99;69.21;102148.98;1676996;84;20315;-62
2020/12/21 11:00:18;;;;;;;;;;;;;;;-0.96;69.12;102146.46;1672589;85;20307;-63
2020/12/21 11:02:45;;;;;;;;;;;;;;;-0.94;69.04;102150.32;1687077;84;20979;-65
2020/12/21 11:05:12;;;;;;;;;;;;;;;-0.91;69.21;102147.80;1671376;86;20398;-64
2020/12/21 11:07:40;;;;;;;;;;;;;;;-0.87;69.08;102144.01;1672269;86;20199;-63
2020/12/21 11:10:09;;;;;;;;;;;;;;;-0.85;68.93;102151.25;1669056;85;20233;-64
2020/12/21 11:12:38;;;;;;;;;;;;;;;-0.84;68.80;102145.29;1682601;84;20202;-65
2020/12/21 11:15:06;;;;;;;;;;;;;;;-0.84;68.78;102152.97;1681560;84;20272;-64
2020/12/21 11:17:33;;;;;;;;;;;;;;;-0.84;68.59;102150.41;1674378;84;20180;-64
2020/12/21 11:20:02;;;;;;;;;;;;;;;-0.88;68.16;102146.13;1677732;84;20193;-64
2020/12/21 11:22:29;;;;;;;;;;;;;;;-0.87;68.34;102147.84;1694637;84;20264;-64
2020/12/21 11:24:57;;;;;;;;;;;;;;;-0.85;68.31;102146.13;1702408;84;20173;-64
2020/12/21 11:27:24;;;;;;;;;;;;;;;-0.86;68.17;102140.58;1693806;84;20184;-64
2020/12/21 11:29:52;;;;;;;;;;;;;;;-0.92;68.35;102141.81;1644742;87;20198;-68
2020/12/21 11:32:22;;;;;;;;;;;;;;;-0.93;68.34;102143.94;1644604;87;20405;-62
2020/12/21 11:34:50;;;;;;;;;;;;;;;-0.94;68.01;102133.68;1645686;87;20142;-65
2020/12/21 11:37:18;;;;;;;;;;;;;;;-1.04;68.08;102133.57;1667535;85;20942;-63
2020/12/21 11:39:45;;;;;;;;;;;;;;;-1.11;67.86;102137.31;1676335;85;20226;-63
2020/12/21 11:42:12;;;;;;;;;;;;;;;-1.18;68.01;102134.24;1690754;85;20470;-64
2020/12/21 11:44:40;;;;;;;;;;;;;;;-1.24;68.01;102132.89;1690840;85;20167;-62
2020/12/21 11:47:11;;;;;;;;;;;;;;;-1.33;68.05;102134.48;1688956;85;20241;-60
2020/12/21 11:49:45;;;;;;;;;;;;;;;-1.31;68.23;102130.67;1822736;77;20286;-61
2020/12/21 11:52:13;;;;;;;;;;;;;;;-1.32;68.24;102131.09;1778389;80;20167;-62
2020/12/21 11:54:40;;;;;;;;;;;;;;;-1.26;68.39;102135.84;1782548;80;20180;-59
2020/12/21 11:57:08;;;;;;;;;;;;;;;-1.21;68.32;102133.78;1781500;80;20133;-63
2020/12/21 11:59:35;;;;;;;;;;;;;;;-1.18;68.37;102136.80;1766447;80;20190;-62
2020/12/21 12:02:02;;;;;;;;;;;;;;;-1.14;68.25;102136.00;1790839;80;20220;-62
2020/12/21 12:04:31;;;;;;;;;;;;;;;-1.14;68.38;102136.00;1791232;80;20752;-63
2020/12/21 12:07:02;;;;;;;;;;;;;;;-1.14;68.17;102137.28;1790951;80;20177;-61
2020/12/21 12:09:29;;;;;;;;;;;;;;;-1.15;68.09;102143.23;1787541;80;20393;-60
2020/12/21 12:11:58;;;;;;;;;;;;;;;-1.18;68.11;102141.50;1761184;80;20270;-60
2020/12/21 12:14:25;;;;;;;;;;;;;;;-1.19;68.25;102144.04;1759695;81;20888;-66
2020/12/21 12:16:57;;;;;;;;;;;;;;;-1.22;68.24;102150.39;1779533;80;20921;-66
2020/12/21 12:19:25;;;;;;;;;;;;;;;-1.25;68.20;102152.91;1760624;81;20203;-66
2020/12/21 12:21:53;;;;;;;;;;;;;;;-1.25;68.18;102149.08;1772673;80;20169;-66
2020/12/21 12:24:20;;;;;;;;;;;;;;;-1.29;68.25;102157.55;1767909;79;20191;-66
2020/12/21 12:26:48;;;;;;;;;;;;;;;-1.29;68.42;102160.11;1774169;80;20626;-60
2020/12/21 12:29:15;;;;;;;;;;;;;;;-1.27;68.38;102160.98;1781604;80;20183;-61
2020/12/21 12:31:42;;;;;;;;;;;;;;;-1.26;68.45;102162.70;1759183;81;20282;-61
2020/12/21 12:34:09;;;;;;;;;;;;;;;-1.27;68.51;102162.27;1759138;81;20147;-62
2020/12/21 12:36:37;;;;;;;;;;;;;;;-1.28;68.65;102166.94;1762209;80;20279;-61
2020/12/21 12:39:05;;;;;;;;;;;;;;;-1.29;68.64;102170.34;1781136;80;20375;-66
2020/12/21 12:41:37;;;;;;;;;;;;;;;-1.33;68.75;102166.45;1764417;80;20175;-64
2020/12/21 12:44:06;;;;;;;;;;;;;;;-1.38;68.79;102166.81;1785384;80;20185;-65
2020/12/21 12:46:33;;;;;;;;;;;;;;;-1.39;68.92;102162.95;1788507;80;20422;-66
2020/12/21 12:49:05;;;;;;;;;;;;;;;-1.39;69.07;102165.09;1787730;80;20121;-60